KMSV/MSV METAR and TAF weather

Enter ICAO airport designator
Station Type Date Time Source
KMSV METAR 2019/06/26 05:56 UTC NOAA

KMSV 260556Z AUTO 30007KT 10SM CLR 18/14 A3002 RMK AO2 SLP155 T01830139 10256 20183 51016


Station Type Date Time Source
KMSV Decoded METAR 2019/06/26 05:56 UTC NOAA

Monticello, Sullivan County International Airport, NY, United States (KMSV) 41-42N 074-48W
Jun 26, 2019 - 01:56 AM EDT / 2019.06.26 0556 UTC
Wind: from the WNW (300 degrees) at 8 MPH (7 KT):0
Visibility: 10 mile(s):0
Sky conditions: clear
Temperature: 64.9 F (18.3 C)
Dew Point: 57.0 F (13.9 C)
Relative Humidity: 75%
Pressure (altimeter): 30.02 in. Hg (1016 hPa)
Pressure tendency: 0.05 inches (1.6 hPa) higher than three hours ago
ob: KMSV 260556Z AUTO 30007KT 10SM CLR 18/14 A3002 RMK AO2 SLP155 T01830139 10256 20183 51016
cycle: 6

Station Type Date Time Source
KMSV TAF UTC NOAA

Error!

Example: see airport list